Time;durP1;ratioP1;P1;durP2;ratioP2;P2;SDS_P1;SDS_P2;PMS_P1;PMS_P2;Temp;Humidity;BMP_temperature;BMP_pressure;BME280_temperature;BME280_humidity;BME280_pressure;Samples;Min_cycle;Max_cycle;Signal;HPM_P1;HPM_P2
2023/04/21 00:00:20;;;;;;;19.10;13.53;;;;;;;6.19;100.00;100587.84;692876;28;1426;-61
2023/04/21 00:00:41;;;;;;;19.20;13.82;;;;;;;6.15;100.00;100586.06;694118;28;845;-60
2023/04/21 00:01:02;;;;;;;19.00;13.60;;;;;;;6.14;100.00;100579.13;690831;28;1105;-59
2023/04/21 00:01:23;;;;;;;18.75;13.38;;;;;;;6.12;100.00;100573.94;689193;28;5309;-60
2023/04/21 00:01:43;;;;;;;18.17;12.82;;;;;;;6.12;100.00;100579.13;690271;28;1061;-60
2023/04/21 00:02:04;;;;;;;20.40;13.50;;;;;;;6.12;100.00;100584.31;691454;28;1072;-60
2023/04/21 00:02:26;;;;;;;19.45;13.30;;;;;;;6.12;100.00;100580.84;690342;28;1694;-59
2023/04/21 00:02:48;;;;;;;18.42;13.27;;;;;;;6.11;100.00;100571.31;690617;28;1966;-60
2023/04/21 00:03:08;;;;;;;19.60;13.10;;;;;;;6.12;100.00;100576.53;689680;28;1483;-59
2023/04/21 00:03:30;;;;;;;17.97;13.10;;;;;;;6.12;100.00;100583.44;688841;28;1051;-60
2023/04/21 00:03:51;;;;;;;18.77;13.32;;;;;;;6.10;100.00;100578.22;687369;28;948;-60
2023/04/21 00:04:12;;;;;;;18.57;13.37;;;;;;;6.17;100.00;100570.50;687750;28;4576;-60
2023/04/21 00:04:32;;;;;;;18.67;13.48;;;;;;;6.15;100.00;100573.09;691347;28;1939;-60
2023/04/21 00:04:55;;;;;;;19.50;13.25;;;;;;;6.14;100.00;100566.16;689872;28;1914;-59
2023/04/21 00:05:15;;;;;;;19.92;13.25;;;;;;;6.14;100.00;100566.16;690823;28;1530;-60
2023/04/21 00:05:37;;;;;;;19.23;13.05;;;;;;;6.12;100.00;100566.13;693050;28;2330;-60
2023/04/21 00:05:57;;;;;;;19.33;12.93;;;;;;;6.13;100.00;100562.69;692557;28;797;-59
2023/04/21 00:06:21;;;;;;;19.80;13.33;;;;;;;6.14;100.00;100568.75;690487;28;1529;-60
2023/04/21 00:06:43;;;;;;;20.45;13.55;;;;;;;6.19;100.00;100558.41;690923;28;837;-60
2023/04/21 00:07:03;;;;;;;19.38;13.63;;;;;;;6.26;100.00;100573.22;689107;28;951;-59
2023/04/21 00:07:23;;;;;;;19.80;13.80;;;;;;;6.23;100.00;100568.88;684135;28;4639;-59
2023/04/21 00:07:44;;;;;;;18.73;13.18;;;;;;;6.21;100.00;100577.47;682295;28;1168;-59
2023/04/21 00:08:05;;;;;;;19.03;13.33;;;;;;;6.20;100.00;100570.53;682856;28;930;-59
2023/04/21 00:08:25;;;;;;;18.90;13.13;;;;;;;6.18;100.00;100570.53;684377;28;1653;-59
2023/04/21 00:08:46;;;;;;;18.17;13.30;;;;;;;6.17;100.00;100565.31;684613;28;912;-59
2023/04/21 00:09:07;;;;;;;19.97;13.73;;;;;;;6.14;100.00;100563.56;685212;28;754;-59
2023/04/21 00:09:27;;;;;;;20.75;14.10;;;;;;;6.14;100.00;100566.16;688639;28;853;-59
2023/04/21 00:09:48;;;;;;;19.08;13.02;;;;;;;6.18;100.00;100564.47;690654;28;1541;-59
2023/04/21 00:10:10;;;;;;;20.07;13.83;;;;;;;6.24;100.00;100564.53;688881;28;5373;-59
2023/04/21 00:10:30;;;;;;;19.75;13.50;;;;;;;6.24;100.00;100572.31;684861;28;1583;-59
2023/04/21 00:10:50;;;;;;;19.20;13.55;;;;;;;6.22;100.00;100568.84;684830;28;999;-59
2023/04/21 00:11:11;;;;;;;18.33;12.93;;;;;;;6.25;100.00;100568.88;683856;28;1533;-59
2023/04/21 00:11:31;;;;;;;19.15;13.30;;;;;;;6.24;100.00;100572.31;684148;28;814;-59
2023/04/21 00:11:52;;;;;;;19.37;13.77;;;;;;;6.22;100.00;100569.72;683995;28;2296;-59
2023/04/21 00:12:12;;;;;;;19.40;13.27;;;;;;;6.21;100.00;100567.09;681136;28;1794;-59
2023/04/21 00:12:33;;;;;;;20.60;13.60;;;;;;;6.19;100.00;100573.97;686060;28;739;-60
2023/04/21 00:12:53;;;;;;;19.27;13.25;;;;;;;6.20;100.00;100568.81;687903;28;1223;-60
2023/04/21 00:13:14;;;;;;;19.57;13.53;;;;;;;6.21;100.00;100567.09;687442;28;4500;-59
2023/04/21 00:13:35;;;;;;;20.83;13.55;;;;;;;6.21;100.00;100561.91;690712;28;944;-60
2023/04/21 00:13:55;;;;;;;19.48;13.43;;;;;;;6.25;100.00;100563.69;686675;28;857;-60
2023/04/21 00:14:16;;;;;;;19.05;13.50;;;;;;;6.21;100.00;100562.75;686679;28;1610;-60
2023/04/21 00:14:38;;;;;;;18.63;13.20;;;;;;;6.25;100.00;100561.09;687553;28;1033;-59
2023/04/21 00:14:59;;;;;;;20.25;13.60;;;;;;;6.29;100.00;100555.06;688191;28;785;-59
2023/04/21 00:15:20;;;;;;;20.58;13.82;;;;;;;6.31;100.00;100563.75;685136;28;919;-59
2023/04/21 00:15:40;;;;;;;19.20;14.53;;;;;;;6.32;100.00;100555.09;685694;28;1955;-59
2023/04/21 00:16:01;;;;;;;19.35;14.07;;;;;;;6.35;100.00;100549.94;685838;28;1153;-59
2023/04/21 00:16:22;;;;;;;20.35;14.40;;;;;;;6.34;100.00;100550.81;684534;28;4366;-59
2023/04/21 00:16:42;;;;;;;20.83;14.27;;;;;;;6.30;100.00;100549.91;686056;28;762;-59
2023/04/21 00:17:03;;;;;;;19.90;13.73;;;;;;;6.27;100.00;100547.28;686289;28;754;-59
2023/04/21 00:17:23;;;;;;;20.00;14.20;;;;;;;6.26;100.00;100555.06;687928;28;1866;-59
2023/04/21 00:17:43;;;;;;;19.38;13.68;;;;;;;6.27;100.00;100549.88;686794;28;1011;-60
2023/04/21 00:18:05;;;;;;;20.23;13.80;;;;;;;6.30;100.00;100549.03;690414;28;1018;-59
2023/04/21 00:18:26;;;;;;;19.80;13.65;;;;;;;6.34;100.00;100547.31;687498;28;1741;-59
2023/04/21 00:18:46;;;;;;;18.98;13.57;;;;;;;6.31;100.00;100550.75;690244;28;1381;-59
2023/04/21 00:19:07;;;;;;;18.85;13.68;;;;;;;6.30;100.00;100549.91;689563;28;2114;-59
2023/04/21 00:19:28;;;;;;;18.67;13.53;;;;;;;6.28;100.00;100551.59;687782;28;4309;-59
2023/04/21 00:19:49;;;;;;;19.88;14.05;;;;;;;6.30;100.00;100549.91;688394;28;861;-59
2023/04/21 00:20:10;;;;;;;19.42;14.40;;;;;;;6.28;100.00;100550.72;688230;28;1053;-59
2023/04/21 00:20:31;;;;;;;19.83;14.15;;;;;;;6.27;100.00;100552.47;688966;28;976;-59
2023/04/21 00:20:51;;;;;;;18.92;13.52;;;;;;;6.30;100.00;100551.63;688387;28;875;-59
2023/04/21 00:21:11;;;;;;;20.67;13.57;;;;;;;6.29;100.00;100553.34;688183;28;1541;-59
2023/04/21 00:21:33;;;;;;;19.38;13.60;;;;;;;6.27;100.00;100551.56;690528;28;892;-59
2023/04/21 00:21:57;;;;;;;19.55;13.85;;;;;;;6.23;100.00;100555.88;690686;28;2252;-59
2023/04/21 00:22:18;;;;;;;20.08;13.70;;;;;;;6.24;100.00;100559.34;690027;28;4476;-59
2023/04/21 00:22:38;;;;;;;20.50;14.13;;;;;;;6.22;100.00;100545.50;689578;28;3582;-59
2023/04/21 00:22:59;;;;;;;20.52;14.10;;;;;;;6.21;100.00;100549.78;690487;28;781;-59
2023/04/21 00:23:19;;;;;;;20.00;14.05;;;;;;;6.20;100.00;100548.03;689785;28;1473;-59
2023/04/21 00:23:40;;;;;;;20.17;14.23;;;;;;;6.18;100.00;100549.75;689889;28;971;-60
2023/04/21 00:24:00;;;;;;;20.30;14.00;;;;;;;6.16;100.00;100551.44;687435;28;1176;-59
2023/04/21 00:24:21;;;;;;;20.25;14.15;;;;;;;6.18;100.00;100552.34;685426;28;1681;-59
2023/04/21 00:24:41;;;;;;;20.70;14.75;;;;;;;6.16;100.00;100546.25;688223;28;778;-59
2023/04/21 00:25:02;;;;;;;19.97;13.77;;;;;;;6.15;100.00;100544.53;687342;28;1910;-59
2023/04/21 00:25:23;;;;;;;19.98;13.98;;;;;;;6.19;100.00;100545.44;686076;28;4716;-59
2023/04/21 00:25:43;;;;;;;20.60;13.98;;;;;;;6.20;100.00;100544.59;685324;28;1188;-59
2023/04/21 00:26:04;;;;;;;19.50;13.77;;;;;;;6.19;100.00;100542.84;687903;28;830;-58
2023/04/21 00:26:24;;;;;;;18.63;13.57;;;;;;;6.22;100.00;100542.88;687535;28;1466;-58
2023/04/21 00:26:45;;;;;;;19.63;13.48;;;;;;;6.27;100.00;100546.38;687997;28;900;-59
2023/04/21 00:27:06;;;;;;;20.75;14.23;;;;;;;6.30;100.00;100546.44;687748;28;1092;-58
2023/04/21 00:27:26;;;;;;;21.43;14.03;;;;;;;6.35;100.00;100551.69;687247;28;1512;-58
2023/04/21 00:27:47;;;;;;;19.10;13.82;;;;;;;6.40;100.00;100558.66;687955;28;874;-58
2023/04/21 00:28:07;;;;;;;20.17;14.17;;;;;;;6.41;100.00;100552.63;686579;28;2183;-58
2023/04/21 00:28:31;;;;;;;20.33;14.50;;;;;;;6.38;100.00;100559.50;690380;28;5216;-58
2023/04/21 00:28:52;;;;;;;19.80;13.73;;;;;;;6.33;100.00;100551.66;689287;28;1353;-59
2023/04/21 00:29:12;;;;;;;20.93;14.13;;;;;;;6.29;100.00;100549.88;686283;28;1505;-59
2023/04/21 00:29:33;;;;;;;20.80;14.23;;;;;;;6.24;100.00;100551.56;689044;28;1140;-59
2023/04/21 00:29:53;;;;;;;21.40;15.10;;;;;;;6.22;100.00;100548.94;690509;28;1187;-60
2023/04/21 00:30:14;;;;;;;22.60;14.80;;;;;;;6.22;100.00;100548.09;683736;28;1595;-60
2023/04/21 00:30:34;;;;;;;22.50;15.05;;;;;;;6.20;100.00;100552.38;683858;28;1008;-60
2023/04/21 00:30:55;;;;;;;20.73;14.80;;;;;;;6.19;100.00;100543.72;684802;28;822;-60
2023/04/21 00:31:15;;;;;;;20.67;14.43;;;;;;;6.19;100.00;100545.44;683655;28;4598;-60
2023/04/21 00:31:36;;;;;;;20.85;14.05;;;;;;;6.18;100.00;100541.13;683377;28;1035;-60
2023/04/21 00:32:00;;;;;;;21.77;14.52;;;;;;;6.16;100.00;100542.81;686469;28;2209;-60
2023/04/21 00:32:21;;;;;;;19.45;14.00;;;;;;;6.13;100.00;100539.34;686327;28;1311;-60
2023/04/21 00:32:41;;;;;;;20.60;14.87;;;;;;;6.14;100.00;100533.28;686369;28;1153;-61
2023/04/21 00:33:02;;;;;;;20.65;14.65;;;;;;;6.12;100.00;100536.72;686439;28;845;-60
2023/04/21 00:33:23;;;;;;;20.75;15.05;;;;;;;6.13;100.00;100539.34;686466;28;1426;-61
2023/04/21 00:33:43;;;;;;;20.57;14.17;;;;;;;6.13;100.00;100531.56;686751;28;1176;-61
2023/04/21 00:34:04;;;;;;;21.13;14.65;;;;;;;6.20;100.00;100534.19;689235;28;936;-60
2023/04/21 00:34:24;;;;;;;20.80;14.87;;;;;;;6.21;100.00;100534.22;686914;28;4472;-61
2023/04/21 00:34:45;;;;;;;22.25;15.07;;;;;;;6.18;100.00;100536.78;688670;28;1308;-61
2023/04/21 00:35:06;;;;;;;21.03;14.33;;;;;;;6.17;100.00;100531.56;688919;28;1165;-60
2023/04/21 00:35:27;;;;;;;20.10;13.85;;;;;;;6.17;100.00;100542.81;687919;28;1922;-60
2023/04/21 00:35:48;;;;;;;20.05;14.02;;;;;;;6.17;100.00;100539.38;688281;28;968;-60
2023/04/21 00:36:08;;;;;;;20.33;14.13;;;;;;;6.17;100.00;100540.22;685344;28;1552;-60
2023/04/21 00:36:28;;;;;;;20.43;14.50;;;;;;;6.17;100.00;100545.41;685871;28;787;-60
2023/04/21 00:36:49;;;;;;;21.17;14.47;;;;;;;6.19;100.00;100538.53;685772;28;873;-60
2023/04/21 00:37:09;;;;;;;20.27;14.17;;;;;;;6.16;100.00;100537.63;684838;28;4378;-60
2023/04/21 00:37:30;;;;;;;19.00;13.50;;;;;;;6.17;100.00;100545.41;685595;28;1153;-60
2023/04/21 00:37:50;;;;;;;21.00;13.95;;;;;;;6.15;100.00;100541.94;688434;28;1298;-60
2023/04/21 00:38:11;;;;;;;21.83;14.27;;;;;;;6.16;100.00;100540.22;687495;28;1577;-60
2023/04/21 00:38:31;;;;;;;19.80;14.30;;;;;;;6.18;100.00;100546.31;688109;28;2269;-60
2023/04/21 00:38:51;;;;;;;19.80;14.00;;;;;;;6.19;100.00;100546.31;687660;28;1008;-60
2023/04/21 00:39:13;;;;;;;20.50;13.85;;;;;;;6.20;100.00;100544.59;687433;28;1646;-60
2023/04/21 00:39:33;;;;;;;22.13;14.93;;;;;;;6.27;100.00;100543.78;690819;28;1059;-60
2023/04/21 00:39:53;;;;;;;21.38;15.00;;;;;;;6.27;100.00;100541.19;687409;28;1148;-59
2023/04/21 00:40:14;;;;;;;21.47;14.40;;;;;;;6.24;100.00;100538.56;688380;28;4533;-60
2023/04/21 00:40:35;;;;;;;22.25;14.85;;;;;;;6.20;100.00;100539.38;688103;28;1685;-60
2023/04/21 00:40:55;;;;;;;23.33;14.50;;;;;;;6.17;100.00;100537.63;688542;28;767;-59
2023/04/21 00:41:15;;;;;;;22.48;14.57;;;;;;;6.16;100.00;100529.81;683852;28;2145;-60
2023/04/21 00:41:37;;;;;;;22.23;14.50;;;;;;;6.18;100.00;100530.72;685122;28;900;-60
2023/04/21 00:41:57;;;;;;;21.65;14.65;;;;;;;6.16;100.00;100532.44;686762;28;1038;-60
2023/04/21 00:42:18;;;;;;;20.30;13.90;;;;;;;6.14;100.00;100529.81;686510;28;5178;-59
2023/04/21 00:42:38;;;;;;;20.23;13.73;;;;;;;6.14;100.00;100528.06;689573;28;928;-60
2023/04/21 00:42:58;;;;;;;20.50;14.37;;;;;;;6.13;100.00;100528.06;690012;28;1044;-59
2023/04/21 00:43:19;;;;;;;20.98;14.52;;;;;;;6.14;100.00;100532.41;691918;28;4741;-60
2023/04/21 00:44:00;;;;;;;21.17;14.68;;;;;;;6.20;100.00;100536.78;692523;28;1420;-60
2023/04/21 00:44:20;;;;;;;22.92;15.25;;;;;;;6.19;100.00;100538.53;689193;28;937;-59
2023/04/21 00:44:41;;;;;;;20.33;13.98;;;;;;;6.19;100.00;100538.53;690491;28;983;-59
2023/04/21 00:45:03;;;;;;;22.00;14.33;;;;;;;6.17;100.00;100532.44;691381;28;1991;-60
2023/04/21 00:45:24;;;;;;;21.95;14.32;;;;;;;6.20;100.00;100534.19;686699;28;2005;-60
2023/04/21 00:45:45;;;;;;;22.23;14.57;;;;;;;6.26;100.00;100534.28;687238;28;1094;-60
2023/04/21 00:46:06;;;;;;;21.40;14.57;;;;;;;6.26;100.00;100534.28;686747;28;1418;-60
2023/04/21 00:46:27;;;;;;;20.08;14.15;;;;;;;6.23;100.00;100535.13;687317;28;4347;-59
2023/04/21 00:46:48;;;;;;;21.48;14.15;;;;;;;6.25;100.00;100538.59;689438;28;908;-60
2023/04/21 00:47:08;;;;;;;21.47;14.30;;;;;;;6.28;100.00;100529.97;689779;28;1550;-60
2023/04/21 00:47:29;;;;;;;21.80;15.13;;;;;;;6.28;100.00;100532.56;688702;28;1187;-61
2023/04/21 00:47:51;;;;;;;21.75;15.48;;;;;;;6.25;100.00;100529.94;690913;28;1397;-59
2023/04/21 00:48:11;;;;;;;22.05;15.20;;;;;;;6.27;100.00;100531.69;689762;28;1614;-60
2023/04/21 00:48:32;;;;;;;22.02;14.95;;;;;;;6.32;100.00;100529.16;689156;28;1493;-60
2023/04/21 00:48:53;;;;;;;21.43;15.23;;;;;;;6.30;100.00;100530.88;688451;28;1435;-59
2023/04/21 00:49:16;;;;;;;21.70;14.82;;;;;;;6.26;100.00;100534.28;687729;28;4712;-60
2023/04/21 00:49:37;;;;;;;21.67;15.45;;;;;;;6.28;100.00;100523.03;683814;28;994;-59
2023/04/21 00:49:58;;;;;;;21.07;14.83;;;;;;;6.27;100.00;100523.91;688431;28;925;-60
2023/04/21 00:50:18;;;;;;;20.52;14.45;;;;;;;6.32;100.00;100529.16;688915;28;1495;-59
2023/04/21 00:50:39;;;;;;;22.63;15.60;;;;;;;6.37;100.00;100527.47;687194;28;903;-59
2023/04/21 00:51:00;;;;;;;21.90;14.93;;;;;;;6.32;100.00;100531.75;686115;28;1940;-60
2023/04/21 00:51:21;;;;;;;21.25;14.63;;;;;;;6.31;100.00;100524.78;683630;28;1607;-59
2023/04/21 00:51:42;;;;;;;21.85;15.13;;;;;;;6.30;100.00;100530.88;681739;28;818;-59
2023/04/21 00:52:05;;;;;;;21.45;14.60;;;;;;;6.27;100.00;100523.91;684601;28;2138;-60
2023/04/21 00:52:27;;;;;;;21.85;15.10;;;;;;;6.28;100.00;100522.19;683486;28;4262;-59
2023/04/21 00:52:48;;;;;;;22.95;15.27;;;;;;;6.26;100.00;100523.91;680055;28;1244;-59
2023/04/21 00:53:09;;;;;;;21.13;15.05;;;;;;;6.23;100.00;100526.44;679685;28;1240;-59
2023/04/21 00:53:30;;;;;;;22.85;15.30;;;;;;;6.23;100.00;100523.84;682538;28;1345;-60
2023/04/21 00:53:51;;;;;;;24.23;14.68;;;;;;;6.26;100.00;100523.91;685827;28;941;-60
2023/04/21 00:54:12;;;;;;;22.83;15.02;;;;;;;6.28;100.00;100519.59;684866;28;1673;-59
2023/04/21 00:54:34;;;;;;;22.67;15.00;;;;;;;6.26;100.00;100513.50;689109;28;865;-59
2023/04/21 00:54:58;;;;;;;20.98;14.00;;;;;;;6.25;100.00;100517.81;687589;28;1258;-60
2023/04/21 00:55:19;;;;;;;22.33;15.30;;;;;;;6.23;100.00;100524.72;683250;28;4364;-60
2023/04/21 00:55:39;;;;;;;21.50;15.05;;;;;;;6.22;100.00;100522.97;687513;28;2200;-60
2023/04/21 00:56:00;;;;;;;23.70;15.18;;;;;;;6.21;100.00;100522.97;684885;28;1033;-60
2023/04/21 00:56:21;;;;;;;22.03;14.73;;;;;;;6.22;100.00;100516.94;685249;28;1034;-59
2023/04/21 00:56:42;;;;;;;22.45;15.52;;;;;;;6.26;100.00;100521.31;688381;28;1955;-60
2023/04/21 00:57:03;;;;;;;22.60;15.50;;;;;;;6.23;100.00;100524.72;685964;28;1404;-60
2023/04/21 00:57:24;;;;;;;23.13;15.65;;;;;;;6.22;100.00;100522.97;682978;28;1422;-58
2023/04/21 00:57:45;;;;;;;23.00;15.07;;;;;;;6.21;100.00;100523.84;685856;28;1012;-58
2023/04/21 00:58:06;;;;;;;22.50;14.88;;;;;;;6.24;100.00;100530.78;686097;28;849;-58
2023/04/21 00:58:26;;;;;;;23.40;14.82;;;;;;;6.20;100.00;100531.59;684303;28;4272;-58
2023/04/21 00:58:49;;;;;;;21.63;15.13;;;;;;;6.19;100.00;100529.84;682774;28;2088;-59
2023/04/21 00:59:09;;;;;;;20.42;14.20;;;;;;;6.20;100.00;100529.00;685388;28;1491;-58
2023/04/21 00:59:30;;;;;;;20.77;14.80;;;;;;;6.18;100.00;100530.72;691223;28;1121;-58
2023/04/21 00:59:50;;;;;;;22.33;15.27;;;;;;;6.22;100.00;100532.50;691118;28;1310;-58
2023/04/21 01:00:12;;;;;;;21.65;14.82;;;;;;;6.22;100.00;100527.31;690492;28;1546;-59
2023/04/21 01:00:36;;;;;;;22.00;15.05;;;;;;;6.21;100.00;100531.63;691553;28;853;-58
2023/04/21 01:00:58;;;;;;;23.02;15.55;;;;;;;6.20;100.00;100531.59;687109;28;952;-58
2023/04/21 01:01:18;;;;;;;22.55;15.32;;;;;;;6.17;100.00;100528.97;688544;28;4401;-58
2023/04/21 01:01:39;;;;;;;21.98;14.82;;;;;;;6.16;100.00;100522.03;690792;28;2139;-58
2023/04/21 01:01:59;;;;;;;22.27;14.53;;;;;;;6.19;100.00;100522.97;691239;28;1115;-58
2023/04/21 01:02:21;;;;;;;23.67;15.05;;;;;;;6.19;100.00;100533.34;690329;28;895;-59
2023/04/21 01:02:44;;;;;;;22.65;15.38;;;;;;;6.18;100.00;100525.53;687243;28;1180;-58
2023/04/21 01:03:05;;;;;;;21.50;14.68;;;;;;;6.16;100.00;100522.03;687630;28;1203;-58
2023/04/21 01:03:26;;;;;;;22.45;15.57;;;;;;;6.17;100.00;100526.38;683618;28;1584;-59
2023/04/21 01:03:46;;;;;;;22.80;15.73;;;;;;;6.17;100.00;100523.78;685759;28;900;-58
2023/04/21 01:04:09;;;;;;;24.63;15.98;;;;;;;6.16;100.00;100517.72;685964;28;1080;-58
2023/04/21 01:04:37;;;;;;;22.30;15.40;;;;;;;6.21;100.00;100525.56;687520;28;4852;-58
2023/04/21 01:04:58;;;;;;;22.30;15.65;;;;;;;6.18;100.00;100516.00;690454;28;1979;-58
2023/04/21 01:05:18;;;;;;;22.50;15.57;;;;;;;6.16;100.00;100519.44;690612;28;950;-58
2023/04/21 01:05:39;;;;;;;23.17;15.30;;;;;;;6.18;100.00;100521.22;690052;28;2244;-59
2023/04/21 01:06:00;;;;;;;22.40;14.95;;;;;;;6.19;100.00;100514.28;692293;28;1086;-59
2023/04/21 01:06:21;;;;;;;21.77;14.65;;;;;;;6.18;100.00;100512.56;688411;28;1499;-59
2023/04/21 01:06:42;;;;;;;22.80;15.60;;;;;;;6.18;100.00;100509.97;685908;28;822;-59
2023/04/21 01:07:03;;;;;;;22.42;15.75;;;;;;;6.18;100.00;100515.16;688674;28;1093;-58
2023/04/21 01:07:24;;;;;;;21.75;15.00;;;;;;;6.16;100.00;100509.91;687402;28;4276;-58
2023/04/21 01:07:45;;;;;;;23.45;14.85;;;;;;;6.16;100.00;100509.06;688464;28;928;-58
2023/04/21 01:08:06;;;;;;;22.97;15.40;;;;;;;6.16;100.00;100502.13;685432;28;1269;-59
2023/04/21 01:08:26;;;;;;;22.67;15.27;;;;;;;6.15;100.00;100508.19;687761;28;1459;-59
2023/04/21 01:08:47;;;;;;;20.77;14.93;;;;;;;6.13;100.00;100508.19;691430;28;892;-58
2023/04/21 01:09:11;;;;;;;23.52;15.68;;;;;;;6.13;100.00;100508.19;688384;28;2314;-59
2023/04/21 01:09:33;;;;;;;24.48;15.50;;;;;;;6.16;100.00;100506.47;686972;28;1310;-58
2023/04/21 01:09:53;;;;;;;23.67;14.98;;;;;;;6.16;100.00;100506.47;689673;28;1279;-59
2023/04/21 01:10:14;;;;;;;22.83;14.87;;;;;;;6.19;100.00;100502.19;688014;28;4273;-58
2023/04/21 01:10:34;;;;;;;23.80;15.00;;;;;;;6.20;100.00;100510.84;688759;28;853;-58
2023/04/21 01:10:55;;;;;;;21.70;14.50;;;;;;;6.19;100.00;100502.19;688013;28;1326;-59
2023/04/21 01:11:15;;;;;;;21.00;14.23;;;;;;;6.19;100.00;100503.91;688705;28;1241;-58
2023/04/21 01:11:36;;;;;;;22.67;14.93;;;;;;;6.17;100.00;100510.81;685489;28;751;-58
2023/04/21 01:12:08;;;;;;;22.88;15.00;;;;;;;6.18;100.00;100507.38;684931;28;2153;-58
2023/04/21 01:12:28;;;;;;;22.70;15.23;;;;;;;6.16;100.00;100506.47;684721;28;1068;-58
2023/04/21 01:12:48;;;;;;;20.77;14.43;;;;;;;6.17;100.00;100510.81;688379;28;975;-58
2023/04/21 01:13:09;;;;;;;20.38;13.90;;;;;;;6.18;100.00;100508.22;686364;28;4424;-58
2023/04/21 01:13:30;;;;;;;21.48;14.13;;;;;;;6.14;100.00;100509.91;690386;28;949;-58
2023/04/21 01:13:53;;;;;;;22.53;14.60;;;;;;;6.14;100.00;100509.91;687944;28;1369;-58
2023/04/21 01:14:14;;;;;;;23.63;15.25;;;;;;;6.11;100.00;100509.88;689204;28;1363;-58
2023/04/21 01:14:36;;;;;;;22.40;14.70;;;;;;;6.11;100.00;100501.25;690858;28;1361;-59
2023/04/21 01:14:57;;;;;;;21.42;14.05;;;;;;;6.14;100.00;100511.66;690525;28;876;-58
2023/04/21 01:15:17;;;;;;;22.45;14.48;;;;;;;6.21;100.00;100505.66;689553;28;848;-58
2023/04/21 01:15:38;;;;;;;21.73;14.83;;;;;;;6.22;100.00;100503.94;691427;28;2331;-58
2023/04/21 01:15:58;;;;;;;22.48;14.65;;;;;;;6.22;100.00;100507.41;693452;28;1190;-59
2023/04/21 01:16:22;;;;;;;22.67;15.00;;;;;;;6.25;100.00;100509.16;690952;28;4357;-58
2023/04/21 01:16:43;;;;;;;22.17;14.18;;;;;;;6.30;100.00;100500.56;688503;28;1416;-58
2023/04/21 01:17:04;;;;;;;21.25;14.25;;;;;;;6.31;100.00;100511.81;687860;28;944;-58
2023/04/21 01:17:25;;;;;;;21.98;14.70;;;;;;;6.33;100.00;100499.75;687896;28;1565;-58
2023/04/21 01:17:46;;;;;;;22.83;14.87;;;;;;;6.32;100.00;100491.94;687358;28;1344;-58
2023/04/21 01:18:07;;;;;;;22.52;14.93;;;;;;;6.27;100.00;100503.16;688043;28;1883;-58
2023/04/21 01:18:28;;;;;;;22.30;14.63;;;;;;;6.27;100.00;100504.84;687931;28;1625;-58
2023/04/21 01:18:55;;;;;;;22.63;14.25;;;;;;;6.28;100.00;100498.81;687122;28;3816;-58
2023/04/21 01:19:15;;;;;;;21.05;14.00;;;;;;;6.29;100.00;100504.00;684487;28;5303;-58
2023/04/21 01:19:40;;;;;;;20.70;14.05;;;;;;;6.27;100.00;100500.53;688138;28;1055;-58
2023/04/21 01:20:12;;;;;;;22.00;14.48;;;;;;;6.26;100.00;100503.13;685575;28;1379;-58
2023/04/21 01:20:33;;;;;;;20.00;13.82;;;;;;;6.24;100.00;100502.22;687028;28;821;-58
2023/04/21 01:20:57;;;;;;;21.50;14.05;;;;;;;6.24;100.00;100510.03;683682;28;1181;-58
2023/04/21 01:21:18;;;;;;;21.88;14.23;;;;;;;6.26;100.00;100497.94;684216;28;1802;-60
2023/04/21 01:21:42;;;;;;;22.30;14.48;;;;;;;6.24;100.00;100499.63;681474;28;1348;-58
2023/04/21 01:22:03;;;;;;;20.55;13.60;;;;;;;6.23;100.00;100497.88;681934;28;2246;-58
2023/04/21 01:22:24;;;;;;;21.45;14.25;;;;;;;6.29;100.00;100495.38;682951;28;5255;-58
2023/04/21 01:22:44;;;;;;;22.33;14.13;;;;;;;6.30;100.00;100494.53;683099;28;885;-58
2023/04/21 01:23:06;;;;;;;22.67;14.93;;;;;;;6.30;100.00;100502.31;684087;28;900;-58
2023/04/21 01:23:26;;;;;;;20.45;13.88;;;;;;;6.28;100.00;100497.06;686669;28;1586;-58
2023/04/21 01:23:46;;;;;;;21.73;13.80;;;;;;;6.29;100.00;100498.81;686087;28;940;-59
2023/04/21 01:24:07;;;;;;;21.75;14.10;;;;;;;6.29;100.00;100498.81;687894;28;1201;-58
2023/04/21 01:24:40;;;;;;;20.23;14.10;;;;;;;6.29;100.00;100500.56;687696;28;1592;-58
2023/04/21 01:25:01;;;;;;;21.05;14.00;;;;;;;6.32;100.00;100502.31;691181;28;1913;-58
2023/04/21 01:25:26;;;;;;;20.88;14.25;;;;;;;6.31;100.00;100501.44;689592;28;4708;-59
2023/04/21 01:25:47;;;;;;;20.05;14.00;;;;;;;6.29;100.00;100503.16;690727;28;1179;-58
2023/04/21 01:26:08;;;;;;;20.58;14.00;;;;;;;6.30;100.00;100502.31;691008;28;719;-58
2023/04/21 01:26:30;;;;;;;21.58;14.50;;;;;;;6.36;100.00;100507.56;690314;28;993;-58
2023/04/21 01:26:50;;;;;;;20.63;14.23;;;;;;;6.33;100.00;100499.75;691878;28;818;-58
2023/04/21 01:27:15;;;;;;;19.43;13.03;;;;;;;6.34;100.00;100505.78;686976;28;1649;-58
2023/04/21 01:27:36;;;;;;;19.55;13.32;;;;;;;6.32;100.00;100498.00;687340;28;766;-58
2023/04/21 01:27:56;;;;;;;20.80;14.07;;;;;;;6.31;100.00;100496.25;686433;28;1271;-58
2023/04/21 01:28:25;;;;;;;20.63;14.13;;;;;;;6.33;100.00;100509.22;685450;28;4377;-58
2023/04/21 01:28:48;;;;;;;20.70;14.23;;;;;;;6.33;100.00;100499.75;687539;28;750;-58
2023/04/21 01:29:09;;;;;;;21.85;14.00;;;;;;;6.32;100.00;100502.31;689708;28;1241;-58
2023/04/21 01:29:33;;;;;;;19.92;13.35;;;;;;;6.31;100.00;100501.44;685843;28;1461;-58
2023/04/21 01:29:54;;;;;;;20.05;13.48;;;;;;;6.35;100.00;100497.16;687099;28;2180;-58
2023/04/21 01:30:14;;;;;;;19.48;13.15;;;;;;;6.38;100.00;100503.22;683943;28;1918;-58
2023/04/21 01:30:34;;;;;;;19.40;13.32;;;;;;;6.34;100.00;100501.50;684741;28;1022;-58
2023/04/21 01:30:55;;;;;;;20.87;13.53;;;;;;;6.33;100.00;100494.53;684554;28;1137;-58
2023/04/21 01:31:16;;;;;;;20.83;13.37;;;;;;;6.30;100.00;100490.19;683119;28;4430;-58
2023/04/21 01:31:36;;;;;;;20.98;13.70;;;;;;;6.30;100.00;100497.13;690282;28;1223;-58
2023/04/21 01:31:57;;;;;;;19.87;13.40;;;;;;;6.32;100.00;100500.59;689555;28;1104;-58
2023/04/21 01:32:22;;;;;;;19.75;13.10;;;;;;;6.30;100.00;100499.72;688825;28;1259;-58
2023/04/21 01:32:42;;;;;;;21.48;14.07;;;;;;;6.32;100.00;100505.78;689741;28;798;-58
2023/04/21 01:33:03;;;;;;;20.23;13.40;;;;;;;6.32;100.00;100500.59;690318;28;777;-58
2023/04/21 01:33:24;;;;;;;20.20;12.95;;;;;;;6.37;100.00;100504.09;686449;28;1666;-58
2023/04/21 01:33:44;;;;;;;23.48;13.65;;;;;;;6.36;100.00;100502.34;684956;28;1133;-58
2023/04/21 01:34:05;;;;;;;20.23;13.47;;;;;;;6.34;100.00;100506.69;687146;28;1149;-58
2023/04/21 01:34:25;;;;;;;19.13;13.50;;;;;;;6.31;100.00;100501.44;687292;28;4499;-58
2023/04/21 01:34:47;;;;;;;20.23;13.60;;;;;;;6.32;100.00;100503.19;687556;28;726;-58
2023/04/21 01:35:08;;;;;;;18.92;12.80;;;;;;;6.34;100.00;100505.78;687354;28;802;-59
2023/04/21 01:35:31;;;;;;;19.45;13.10;;;;;;;6.40;100.00;100506.72;686272;28;1464;-58
2023/04/21 01:35:52;;;;;;;20.33;13.20;;;;;;;6.38;100.00;100508.41;687687;28;861;-58
2023/04/21 01:36:13;;;;;;;19.73;13.43;;;;;;;6.38;100.00;100507.56;684916;28;829;-58
2023/04/21 01:36:35;;;;;;;19.85;12.98;;;;;;;6.45;100.00;100505.06;683450;28;818;-58
2023/04/21 01:36:55;;;;;;;19.30;13.27;;;;;;;6.51;100.00;100513.72;682506;28;2195;-58
2023/04/21 01:37:20;;;;;;;20.17;13.27;;;;;;;6.54;100.00;100508.59;679513;28;4635;-59
2023/04/21 01:37:40;;;;;;;20.10;13.07;;;;;;;6.54;100.00;100506.84;680032;28;1319;-58
2023/04/21 01:38:01;;;;;;;20.15;13.35;;;;;;;6.55;100.00;100507.72;682297;28;719;-58
2023/04/21 01:38:22;;;;;;;19.83;13.80;;;;;;;6.57;100.00;100508.63;685208;28;1539;-58
2023/04/21 01:38:42;;;;;;;18.70;12.90;;;;;;;6.58;100.00;100503.44;685708;28;871;-58
2023/04/21 01:39:03;;;;;;;19.50;12.93;;;;;;;6.62;100.00;100504.34;686419;28;1547;-58
2023/04/21 01:39:24;;;;;;;20.55;14.18;;;;;;;6.63;100.00;100503.47;689938;28;1511;-58